Bardufoss, Norja

22. huhtikuuta 2018 klo 10:40 (CEST) (GMT +0200)
Bardufoss Air Base | | Change Station

Kork 259 ft 69.05 °N, 18.55 °E | Updated 20 minutes ago

Mostly Cloudy
Pilvistä
37 °F
Tuntuu kuin 32 °F
N
7
Tuuli Suunnaltaan vaihteleva Tuuli ilmansuunnasta Länsi

Tänään
Korkea -- | Matala -- °F
--% Sateen mahd.
Eilen
Korkea -- | Matala -- °F
Precip. -- tuumaa
Ilmanpaine 29.86 tuumaa
Näkyvyys 6.2 mailia
Pilviä Harvoja pilviä 2500 ft
Pilvistä 4000 ft
Tuulen hyytävyys 32 °F
Kastepiste 30 °F
Ilmankosteus 75%
Sademäärä 0.00 tuumaa
Lumensyvyys Ei saatavilla
4:15 AM 9:16 PM
Kasvava sirppi, 44% visible
METAR ENDU 220820Z 28006KT 9999 FEW025 BKN040 03/M01 Q1011 NOSIG RMK
Ilmanpaine 29.86 tuumaa
Näkyvyys 6.2 mailia
Pilviä Harvoja pilviä 2500 ft
Pilvistä 4000 ft
Tuulen hyytävyys 32 °F
Kastepiste 30 °F
Ilmankosteus 75%
Sademäärä 0.00 tuumaa
Lumensyvyys Ei saatavilla
4:15 AM 9:16 PM
Kasvava sirppi, 44% visible
METAR ENDU 220820Z 28006KT 9999 FEW025 BKN040 03/M01 Q1011 NOSIG RMK

Get Severe Weather Alerts

Thanks for signing up!

Be on the lookout for a verification email in your inbox.

You'll start receiving the daily forecast at 6 AM.

×

10-Day Weather Forecast

×

Almanac

Tähtitiede

Apr. 22, 2018 Nousuaika Laskuaika
Valoisa aika
Porvarillinen hämärä
Nauttinen hämärä
Astronominen hämärä
Kuu
Näkyvän valon pituus
Päivän pituus
Tomorrow will be .
, % of the Moon is Illuminated

Tämän päivän ennätykset

Country Highs Country Lows

Community

WunderPhotos

Category 6

Welcome to Category 6. This is the collective home for Weather Underground's featured writeups by Dr. Jeff Masters (right), Bob Henson (left), Chris Burt, and other regular contributors.

Nearby

Ilmanlaatu

  Ilmanlaatu AQ Index Pollutant
Not available.

Lumensyvyys

Station Depth Korkeus

Maanjäristysaktiivisuus

Paikkakunta Distance Mag. Time & Date
Minimum magnitude displayed is 2.5.

Coastal Water Temperatures

Paikka Lämpötila

Stations

Lähimmät sääasemat

Aseman sijainti Lämpötila Tuulen hyytävyys Kastepiste Ilmankosteus Tuuli Precip. Kork Päivitetty Tyyppi